Time;durP1;ratioP1;P1;durP2;ratioP2;P2;SDS_P1;SDS_P2;PMS_P1;PMS_P2;Temp;Humidity;BMP_temperature;BMP_pressure;BME280_temperature;BME280_humidity;BME280_pressure;Samples;Min_cycle;Max_cycle;Signal;HPM_P1;HPM_P2
2022/11/16 00:03:51;;;;;;;14.50;7.65;;;;;;;;;;10504327;28;20642;-73
2022/11/16 00:14:17;;;;;;;10.98;7.30;;;;;;;;;;10504872;28;20212;-73
2022/11/16 00:19:19;;;;;;;12.70;7.00;;;;;;;;;;10487633;28;20234;-73
2022/11/16 00:24:20;;;;;;;11.80;6.75;;;;;;;;;;10500307;28;20247;-73
2022/11/16 00:29:25;;;;;;;12.13;7.43;;;;;;;;;;10502577;28;20297;-72
2022/11/16 00:34:27;;;;;;;10.50;7.75;;;;;;;;;;10497609;28;20848;-73
2022/11/16 00:39:28;;;;;;;16.00;6.82;;;;;;;;;;10503697;28;20217;-73
2022/11/16 00:44:29;;;;;;;10.25;6.60;;;;;;;;;;10499813;28;20240;-74
2022/11/16 00:49:30;;;;;;;8.98;6.15;;;;;;;;;;10491438;28;20292;-73
2022/11/16 00:54:32;;;;;;;10.70;7.47;;;;;;;;;;10503833;28;20208;-73
2022/11/16 00:59:33;;;;;;;12.40;5.97;;;;;;;;;;10502491;28;20210;-73
2022/11/16 01:04:35;;;;;;;8.65;6.35;;;;;;;;;;10485623;28;20209;-73
2022/11/16 01:09:36;;;;;;;9.35;5.68;;;;;;;;;;10477541;28;20232;-73
2022/11/16 01:14:44;;;;;;;8.27;6.53;;;;;;;;;;10502940;28;20214;-72
2022/11/16 01:19:45;;;;;;;8.13;6.25;;;;;;;;;;10501551;28;20226;-72
2022/11/16 01:24:47;;;;;;;10.15;6.53;;;;;;;;;;10501633;28;20219;-72
2022/11/16 01:29:48;;;;;;;7.30;5.78;;;;;;;;;;10486876;28;20210;-73
2022/11/16 01:34:50;;;;;;;9.45;6.28;;;;;;;;;;10489630;28;20343;-71
2022/11/16 01:40:01;;;;;;;7.07;5.88;;;;;;;;;;10484128;28;20221;-72
2022/11/16 01:45:24;;;;;;;7.68;6.40;;;;;;;;;;10482536;28;20250;-72
2022/11/16 01:50:28;;;;;;;10.30;7.35;;;;;;;;;;10468749;28;20745;-72
2022/11/16 01:55:31;;;;;;;7.15;5.82;;;;;;;;;;10488660;28;20217;-72
2022/11/16 02:00:44;;;;;;;9.27;6.75;;;;;;;;;;10484969;28;20213;-72
2022/11/16 02:06:12;;;;;;;7.88;6.07;;;;;;;;;;10487379;28;20314;-72
2022/11/16 02:11:35;;;;;;;10.75;7.00;;;;;;;;;;10484595;28;20213;-72
2022/11/16 02:16:38;;;;;;;10.70;7.40;;;;;;;;;;10477099;28;20213;-72
2022/11/16 02:21:44;;;;;;;10.80;6.95;;;;;;;;;;10499538;28;20222;-71
2022/11/16 02:26:54;;;;;;;18.05;7.32;;;;;;;;;;10480427;28;20222;-72
2022/11/16 02:32:25;;;;;;;12.82;7.43;;;;;;;;;;10482467;28;20686;-73
2022/11/16 02:37:29;;;;;;;14.40;7.20;;;;;;;;;;10420114;28;20213;-73
2022/11/16 02:42:34;;;;;;;10.18;5.93;;;;;;;;;;10496298;28;20279;-72
2022/11/16 02:47:40;;;;;;;9.55;6.30;;;;;;;;;;10475837;28;20217;-73
2022/11/16 02:52:41;;;;;;;11.05;7.20;;;;;;;;;;10484319;28;20680;-72
2022/11/16 02:58:03;;;;;;;10.68;7.03;;;;;;;;;;10488567;28;20340;-72
2022/11/16 03:03:09;;;;;;;9.63;6.93;;;;;;;;;;10480759;28;20213;-72
2022/11/16 03:08:14;;;;;;;11.60;6.57;;;;;;;;;;10477273;28;20210;-72
2022/11/16 03:13:15;;;;;;;11.45;8.32;;;;;;;;;;10500193;28;20236;-72
2022/11/16 03:18:17;;;;;;;13.75;7.57;;;;;;;;;;10484356;28;20278;-73
2022/11/16 03:23:19;;;;;;;10.45;7.55;;;;;;;;;;10497211;28;20214;-73
2022/11/16 03:28:24;;;;;;;12.45;7.72;;;;;;;;;;10501197;28;20257;-72
2022/11/16 03:33:32;;;;;;;12.40;8.13;;;;;;;;;;10483524;28;20304;-72
2022/11/16 03:38:35;;;;;;;14.65;7.57;;;;;;;;;;10481432;28;20205;-72
2022/11/16 03:43:39;;;;;;;11.23;7.35;;;;;;;;;;10481584;28;20224;-73
2022/11/16 03:48:41;;;;;;;14.07;7.40;;;;;;;;;;10493040;28;20237;-73
2022/11/16 03:53:49;;;;;;;12.48;7.30;;;;;;;;;;10490089;28;20224;-73
2022/11/16 03:58:50;;;;;;;11.45;7.75;;;;;;;;;;10509099;28;20772;-72
2022/11/16 04:03:52;;;;;;;10.88;7.90;;;;;;;;;;10488589;28;20217;-73
2022/11/16 04:25:08;;;;;;;11.45;7.85;;;;;;;;;;10491087;28;20260;-72
2022/11/16 04:30:10;;;;;;;13.27;7.97;;;;;;;;;;10504764;28;20178;-72
2022/11/16 04:40:32;;;;;;;12.70;8.80;;;;;;;;;;10481280;28;20218;-73
2022/11/16 04:50:59;;;;;;;14.10;8.15;;;;;;;;;;10484827;28;20725;-72
2022/11/16 04:56:01;;;;;;;12.65;7.75;;;;;;;;;;10490175;28;20272;-72
2022/11/16 05:01:03;;;;;;;12.00;8.18;;;;;;;;;;10491589;28;21040;-72
2022/11/16 05:06:05;;;;;;;12.13;8.07;;;;;;;;;;10502075;28;20229;-72
2022/11/16 05:11:07;;;;;;;12.27;8.13;;;;;;;;;;10491538;28;20686;-72
2022/11/16 05:16:08;;;;;;;15.40;8.43;;;;;;;;;;10481995;28;20251;-72
2022/11/16 05:21:10;;;;;;;12.07;8.25;;;;;;;;;;10479521;28;20233;-72
2022/11/16 05:26:12;;;;;;;14.50;7.82;;;;;;;;;;10483787;28;20225;-72
2022/11/16 05:31:14;;;;;;;12.10;8.02;;;;;;;;;;10467347;28;20220;-71
2022/11/16 05:36:15;;;;;;;15.80;9.48;;;;;;;;;;10498269;28;20218;-72
2022/11/16 05:41:16;;;;;;;11.20;7.22;;;;;;;;;;10482009;28;20249;-72
2022/11/16 05:46:18;;;;;;;13.43;8.27;;;;;;;;;;10464463;28;20225;-71
2022/11/16 05:51:20;;;;;;;14.15;9.23;;;;;;;;;;10481580;28;20586;-72
2022/11/16 05:56:21;;;;;;;15.15;8.02;;;;;;;;;;10487506;28;20293;-72
2022/11/16 06:01:23;;;;;;;14.05;8.23;;;;;;;;;;10480012;28;20701;-72
2022/11/16 06:06:25;;;;;;;15.15;8.15;;;;;;;;;;10469405;28;20237;-73
2022/11/16 06:11:27;;;;;;;16.23;9.05;;;;;;;;;;10483609;28;20226;-72
2022/11/16 06:16:28;;;;;;;11.73;8.57;;;;;;;;;;10495513;28;20565;-73
2022/11/16 06:21:29;;;;;;;14.25;8.68;;;;;;;;;;10489748;28;20225;-72
2022/11/16 06:26:31;;;;;;;15.98;9.45;;;;;;;;;;10482780;28;20225;-72
2022/11/16 06:31:32;;;;;;;20.05;9.60;;;;;;;;;;10480595;28;20282;-71
2022/11/16 06:36:36;;;;;;;16.05;9.00;;;;;;;;;;10470131;28;20209;-72
2022/11/16 06:41:37;;;;;;;16.35;9.20;;;;;;;;;;10456891;28;20570;-72
2022/11/16 06:46:38;;;;;;;15.20;9.57;;;;;;;;;;10490221;28;20236;-72
2022/11/16 06:51:40;;;;;;;17.88;10.52;;;;;;;;;;10501863;28;20209;-72
2022/11/16 06:56:42;;;;;;;20.40;11.02;;;;;;;;;;10485102;28;20225;-72
2022/11/16 07:01:44;;;;;;;17.95;9.95;;;;;;;;;;10487200;28;20216;-72
2022/11/16 07:06:47;;;;;;;19.40;9.57;;;;;;;;;;10477371;28;20312;-72
2022/11/16 07:11:50;;;;;;;18.90;9.80;;;;;;;;;;10461112;28;21119;-73
2022/11/16 07:16:53;;;;;;;21.85;10.85;;;;;;;;;;10476508;28;20274;-72
2022/11/16 07:21:54;;;;;;;25.30;10.45;;;;;;;;;;10494004;28;20573;-72
2022/11/16 07:26:56;;;;;;;22.10;10.48;;;;;;;;;;10482498;28;20309;-72
2022/11/16 07:32:00;;;;;;;21.35;11.00;;;;;;;;;;10492037;28;20236;-72
2022/11/16 07:37:24;;;;;;;21.13;10.95;;;;;;;;;;10498131;28;20225;-71
2022/11/16 07:42:25;;;;;;;20.67;10.02;;;;;;;;;;10482326;28;20669;-71
2022/11/16 07:47:53;;;;;;;22.42;9.98;;;;;;;;;;10489600;28;20216;-71
2022/11/16 07:53:13;;;;;;;18.80;10.02;;;;;;;;;;10478698;28;20206;-71
2022/11/16 07:58:14;;;;;;;18.80;10.63;;;;;;;;;;10472542;28;20205;-72
2022/11/16 08:03:16;;;;;;;19.73;10.68;;;;;;;;;;10475032;28;20206;-71
2022/11/16 08:08:18;;;;;;;22.38;10.48;;;;;;;;;;10475985;28;20207;-71
2022/11/16 08:13:20;;;;;;;20.35;10.90;;;;;;;;;;10496370;28;20222;-71
2022/11/16 08:18:21;;;;;;;20.63;10.13;;;;;;;;;;10474875;28;20254;-71
2022/11/16 08:23:23;;;;;;;19.58;10.05;;;;;;;;;;10507514;28;20341;-71
2022/11/16 08:28:26;;;;;;;20.48;10.70;;;;;;;;;;10481043;28;20208;-72
2022/11/16 08:33:28;;;;;;;22.77;10.07;;;;;;;;;;10495155;28;20258;-72
2022/11/16 08:38:30;;;;;;;21.08;10.73;;;;;;;;;;10474234;28;20233;-72
2022/11/16 08:43:32;;;;;;;20.05;10.50;;;;;;;;;;10501503;28;20218;-70
2022/11/16 08:48:34;;;;;;;20.75;10.43;;;;;;;;;;10490211;28;20221;-71
2022/11/16 08:53:36;;;;;;;18.15;10.63;;;;;;;;;;10482926;28;20241;-70
2022/11/16 08:58:38;;;;;;;22.00;10.38;;;;;;;;;;10487365;28;20219;-70
2022/11/16 09:03:40;;;;;;;19.42;9.73;;;;;;;;;;10486922;28;20669;-70
2022/11/16 09:08:42;;;;;;;22.20;10.48;;;;;;;;;;10500023;28;20330;-70
2022/11/16 09:13:47;;;;;;;17.08;10.25;;;;;;;;;;10494954;28;20584;-70
2022/11/16 09:18:49;;;;;;;21.60;11.18;;;;;;;;;;10499005;28;20992;-71
2022/11/16 09:23:50;;;;;;;22.33;10.23;;;;;;;;;;10466845;28;20863;-70
2022/11/16 09:28:58;;;;;;;22.40;11.48;;;;;;;;;;10489564;28;20209;-73
2022/11/16 09:33:59;;;;;;;27.00;11.75;;;;;;;;;;10479401;28;20206;-73
2022/11/16 09:39:02;;;;;;;20.85;10.88;;;;;;;;;;10488446;28;20304;-72
2022/11/16 09:44:15;;;;;;;20.13;10.65;;;;;;;;;;10490827;28;20221;-71
2022/11/16 09:49:22;;;;;;;24.10;11.48;;;;;;;;;;10492413;28;20205;-71
2022/11/16 09:54:24;;;;;;;24.42;13.35;;;;;;;;;;10481398;28;20210;-71
2022/11/16 09:59:28;;;;;;;22.98;11.10;;;;;;;;;;10487293;28;20217;-71
2022/11/16 10:04:48;;;;;;;21.35;11.50;;;;;;;;;;10500524;28;20696;-70
2022/11/16 10:09:50;;;;;;;19.63;12.10;;;;;;;;;;10494301;28;20201;-74
2022/11/16 10:15:01;;;;;;;31.23;17.83;;;;;;;;;;10504942;28;20205;-75
2022/11/16 10:20:08;;;;;;;23.25;12.10;;;;;;;;;;10503598;28;20672;-73
2022/11/16 10:25:19;;;;;;;24.30;13.05;;;;;;;;;;10501183;28;20201;-71
2022/11/16 10:30:21;;;;;;;23.75;13.85;;;;;;;;;;10479598;28;20247;-71
2022/11/16 10:35:25;;;;;;;37.35;15.82;;;;;;;;;;10495401;28;20214;-71
2022/11/16 10:40:35;;;;;;;23.83;12.88;;;;;;;;;;10479832;28;20213;-72
2022/11/16 10:45:43;;;;;;;22.60;11.60;;;;;;;;;;10492751;28;20709;-72
2022/11/16 10:50:47;;;;;;;30.10;14.75;;;;;;;;;;10475894;28;20206;-72
2022/11/16 10:56:00;;;;;;;26.48;14.32;;;;;;;;;;10484336;28;20256;-72
2022/11/16 11:01:01;;;;;;;27.58;14.68;;;;;;;;;;10496353;28;20252;-72
2022/11/16 11:06:03;;;;;;;29.02;14.27;;;;;;;;;;10494228;28;20249;-71
2022/11/16 11:16:26;;;;;;;26.58;13.45;;;;;;;;;;10497779;28;20582;-72
2022/11/16 11:21:27;;;;;;;25.55;13.93;;;;;;;;;;10495130;28;20218;-72
2022/11/16 11:26:31;;;;;;;26.85;15.57;;;;;;;;;;10496072;28;20213;-71
2022/11/16 11:31:39;;;;;;;24.90;12.63;;;;;;;;;;10484604;28;20225;-72
2022/11/16 11:36:49;;;;;;;26.60;12.73;;;;;;;;;;10470770;28;20905;-72
2022/11/16 11:42:02;;;;;;;23.25;12.38;;;;;;;;;;10483545;28;20217;-72
2022/11/16 11:47:03;;;;;;;30.50;14.15;;;;;;;;;;10488408;28;20226;-68
2022/11/16 11:52:20;;;;;;;24.80;13.65;;;;;;;;;;10490338;28;20340;-69
2022/11/16 11:57:23;;;;;;;27.98;14.93;;;;;;;;;;10461323;28;20295;-70
2022/11/16 12:02:24;;;;;;;34.30;16.90;;;;;;;;;;10486561;28;20216;-70
2022/11/16 12:07:45;;;;;;;32.80;16.25;;;;;;;;;;10497893;28;20720;-70
2022/11/16 12:12:49;;;;;;;35.03;16.13;;;;;;;;;;10495037;28;20248;-70
2022/11/16 12:18:02;;;;;;;44.50;16.67;;;;;;;;;;10506446;28;20252;-71
2022/11/16 12:23:23;;;;;;;46.67;16.63;;;;;;;;;;10488275;28;20213;-70
2022/11/16 12:28:24;;;;;;;38.72;18.45;;;;;;;;;;10472493;28;20205;-71
2022/11/16 12:33:39;;;;;;;38.28;16.55;;;;;;;;;;10500382;28;20640;-71
2022/11/16 12:38:49;;;;;;;38.78;15.45;;;;;;;;;;10491011;28;20210;-71
2022/11/16 12:44:01;;;;;;;40.25;16.90;;;;;;;;;;10497486;28;20218;-70
2022/11/16 12:49:02;;;;;;;45.70;17.42;;;;;;;;;;10500975;28;20210;-70
2022/11/16 12:54:12;;;;;;;38.95;16.58;;;;;;;;;;10503886;28;20252;-70
2022/11/16 12:59:21;;;;;;;34.67;15.57;;;;;;;;;;10496763;28;20202;-70
2022/11/16 13:04:29;;;;;;;41.38;15.68;;;;;;;;;;10491149;28;20702;-69
2022/11/16 13:09:33;;;;;;;40.75;18.58;;;;;;;;;;10502554;28;20229;-73
2022/11/16 13:14:37;;;;;;;47.25;18.30;;;;;;;;;;10502282;28;20215;-71
2022/11/16 13:19:39;;;;;;;42.88;16.00;;;;;;;;;;10479569;28;20265;-71
2022/11/16 13:24:52;;;;;;;38.28;16.50;;;;;;;;;;10486592;28;20308;-72
2022/11/16 13:30:12;;;;;;;31.17;14.65;;;;;;;;;;10479068;28;20248;-70
2022/11/16 13:35:15;;;;;;;30.58;13.88;;;;;;;;;;10500945;28;20213;-72
2022/11/16 13:40:23;;;;;;;38.83;15.32;;;;;;;;;;10467969;28;20178;-70
2022/11/16 13:45:26;;;;;;;31.63;14.57;;;;;;;;;;10502949;28;20255;-71
2022/11/16 13:50:30;;;;;;;30.60;13.43;;;;;;;;;;10477650;28;20343;-71
2022/11/16 13:55:37;;;;;;;34.20;14.70;;;;;;;;;;10494743;28;20224;-70
2022/11/16 14:00:39;;;;;;;30.25;13.68;;;;;;;;;;10486521;28;20278;-71
2022/11/16 14:05:41;;;;;;;29.02;12.93;;;;;;;;;;10479697;28;20298;-71
2022/11/16 14:10:51;;;;;;;26.35;12.82;;;;;;;;;;10493253;28;20363;-70
2022/11/16 14:16:12;;;;;;;25.83;12.77;;;;;;;;;;10483216;28;20206;-71
2022/11/16 14:21:20;;;;;;;28.67;13.02;;;;;;;;;;10494802;28;20249;-70
2022/11/16 14:26:22;;;;;;;25.55;11.88;;;;;;;;;;10499409;28;20220;-71
2022/11/16 14:31:24;;;;;;;27.95;12.95;;;;;;;;;;10492968;28;20220;-70
2022/11/16 14:36:37;;;;;;;32.35;13.70;;;;;;;;;;10491727;28;20319;-70
2022/11/16 14:41:38;;;;;;;41.42;21.90;;;;;;;;;;10461536;28;20667;-69
2022/11/16 14:46:39;;;;;;;21.50;12.77;;;;;;;;;;10496754;28;20222;-69
2022/11/16 14:51:44;;;;;;;21.60;11.73;;;;;;;;;;10486419;28;20767;-70
2022/11/16 14:57:02;;;;;;;25.50;11.93;;;;;;;;;;10487118;28;20205;-71
2022/11/16 15:02:20;;;;;;;27.02;11.35;;;;;;;;;;10477684;28;20216;-70
2022/11/16 15:07:25;;;;;;;23.98;11.02;;;;;;;;;;10490647;28;20642;-70
2022/11/16 15:12:42;;;;;;;23.15;11.98;;;;;;;;;;10493140;28;21105;-70
2022/11/16 15:17:52;;;;;;;21.00;11.52;;;;;;;;;;10478234;28;20229;-71
2022/11/16 15:22:54;;;;;;;21.35;10.85;;;;;;;;;;10494926;28;20210;-70
2022/11/16 15:27:56;;;;;;;24.45;11.27;;;;;;;;;;10480412;28;20218;-71
2022/11/16 15:32:57;;;;;;;27.05;10.65;;;;;;;;;;10484904;28;20249;-72
2022/11/16 15:38:02;;;;;;;26.08;11.13;;;;;;;;;;10491020;28;20347;-70
2022/11/16 15:43:04;;;;;;;23.92;10.10;;;;;;;;;;10503645;28;20224;-68
2022/11/16 15:48:06;;;;;;;21.90;10.85;;;;;;;;;;10502004;28;21027;-69
2022/11/16 15:53:27;;;;;;;27.85;13.43;;;;;;;;;;10485032;28;20209;-69
2022/11/16 15:58:29;;;;;;;21.67;10.18;;;;;;;;;;10483577;28;20217;-73
2022/11/16 16:03:33;;;;;;;19.77;9.00;;;;;;;;;;10501780;28;20282;-71
2022/11/16 16:08:38;;;;;;;22.13;9.15;;;;;;;;;;10500482;28;20213;-69
2022/11/16 16:13:40;;;;;;;16.63;8.57;;;;;;;;;;10476833;28;20213;-69
2022/11/16 16:18:42;;;;;;;19.30;7.25;;;;;;;;;;10503985;28;20701;-69
2022/11/16 16:23:48;;;;;;;15.13;7.20;;;;;;;;;;10507631;28;20209;-68
2022/11/16 16:28:50;;;;;;;13.65;7.28;;;;;;;;;;10505674;28;20343;-68
2022/11/16 16:33:51;;;;;;;8.65;5.22;;;;;;;;;;10508209;28;20233;-69
2022/11/16 16:38:52;;;;;;;8.80;5.50;;;;;;;;;;10500879;28;20220;-69
2022/11/16 16:43:53;;;;;;;8.73;5.60;;;;;;;;;;10503761;28;20213;-68
2022/11/16 16:48:54;;;;;;;10.07;5.68;;;;;;;;;;10500819;28;20260;-69
2022/11/16 16:53:55;;;;;;;10.38;5.38;;;;;;;;;;10467399;28;20680;-71
2022/11/16 16:58:57;;;;;;;11.30;5.03;;;;;;;;;;10495075;28;20862;-70
2022/11/16 17:03:58;;;;;;;8.68;5.13;;;;;;;;;;10507054;28;20220;-72
2022/11/16 17:08:59;;;;;;;7.97;4.82;;;;;;;;;;10485041;28;20222;-70
2022/11/16 17:14:04;;;;;;;7.60;4.60;;;;;;;;;;10492826;28;20374;-69
2022/11/16 17:19:05;;;;;;;6.22;4.75;;;;;;;;;;10492356;28;20230;-69
2022/11/16 17:24:06;;;;;;;8.30;5.13;;;;;;;;;;10484261;28;20221;-69
2022/11/16 17:29:07;;;;;;;8.52;5.88;;;;;;;;;;10496707;28;20949;-68
2022/11/16 17:34:11;;;;;;;7.47;4.97;;;;;;;;;;10498897;28;20303;-69
2022/11/16 17:39:12;;;;;;;9.80;6.43;;;;;;;;;;10503974;28;20279;-69
2022/11/16 17:44:16;;;;;;;14.88;8.75;;;;;;;;;;10484992;28;20225;-69
2022/11/16 17:49:17;;;;;;;10.07;6.28;;;;;;;;;;10497990;28;20214;-68
2022/11/16 17:54:18;;;;;;;5.82;5.22;;;;;;;;;;10493103;28;20318;-68
2022/11/16 17:59:19;;;;;;;5.78;5.00;;;;;;;;;;10489674;28;20213;-68
2022/11/16 18:04:20;;;;;;;6.38;4.72;;;;;;;;;;10473955;28;20213;-69
2022/11/16 18:09:22;;;;;;;7.55;5.53;;;;;;;;;;10491159;28;20206;-69
2022/11/16 18:14:24;;;;;;;5.75;4.13;;;;;;;;;;10460420;28;20946;-71
2022/11/16 18:19:25;;;;;;;6.03;4.50;;;;;;;;;;10474876;28;20264;-69
2022/11/16 18:24:26;;;;;;;5.35;4.78;;;;;;;;;;10469605;28;20221;-69
2022/11/16 18:29:27;;;;;;;5.63;4.45;;;;;;;;;;10484221;28;21036;-69
2022/11/16 18:34:28;;;;;;;5.68;4.20;;;;;;;;;;10467829;28;20909;-67
2022/11/16 18:39:29;;;;;;;5.38;3.90;;;;;;;;;;10474825;28;20275;-68
2022/11/16 18:44:30;;;;;;;6.38;3.90;;;;;;;;;;10478854;28;20220;-70
2022/11/16 18:49:32;;;;;;;8.40;5.20;;;;;;;;;;10485749;28;20214;-72
2022/11/16 18:54:33;;;;;;;5.07;4.43;;;;;;;;;;10486989;28;20267;-74
2022/11/16 18:59:34;;;;;;;3.78;3.33;;;;;;;;;;10471007;28;20217;-70
2022/11/16 19:04:35;;;;;;;4.40;3.95;;;;;;;;;;10483076;28;20306;-70
2022/11/16 19:09:36;;;;;;;7.85;4.78;;;;;;;;;;10481366;28;20685;-73
2022/11/16 19:14:38;;;;;;;3.47;3.05;;;;;;;;;;10479422;28;20219;-72
2022/11/16 19:19:39;;;;;;;3.92;3.10;;;;;;;;;;10484042;28;20225;-70
2022/11/16 19:24:40;;;;;;;3.60;2.90;;;;;;;;;;10492290;28;20891;-69
2022/11/16 19:29:41;;;;;;;3.90;3.53;;;;;;;;;;10488761;28;20213;-69
2022/11/16 19:34:43;;;;;;;2.90;2.72;;;;;;;;;;10478364;28;20303;-69
2022/11/16 19:39:44;;;;;;;2.85;2.67;;;;;;;;;;10493553;28;20210;-70
2022/11/16 19:44:45;;;;;;;8.38;5.15;;;;;;;;;;10494080;28;20222;-69
2022/11/16 19:49:48;;;;;;;4.78;4.30;;;;;;;;;;10490594;28;20206;-70
2022/11/16 19:54:49;;;;;;;3.30;3.00;;;;;;;;;;10493420;28;20249;-69
2022/11/16 19:59:50;;;;;;;3.53;3.22;;;;;;;;;;10479976;28;21793;-70
2022/11/16 20:04:51;;;;;;;2.92;2.72;;;;;;;;;;10492992;28;20308;-68
2022/11/16 20:09:53;;;;;;;2.10;2.00;;;;;;;;;;10469466;28;20207;-71
2022/11/16 20:14:54;;;;;;;2.47;2.28;;;;;;;;;;10457967;28;20221;-72
2022/11/16 20:19:55;;;;;;;2.53;2.05;;;;;;;;;;10481267;28;20217;-69
2022/11/16 20:24:56;;;;;;;2.05;1.95;;;;;;;;;;10503992;28;20641;-68
2022/11/16 20:29:57;;;;;;;2.38;2.20;;;;;;;;;;10492372;28;20209;-69
2022/11/16 20:34:59;;;;;;;2.40;2.03;;;;;;;;;;10482853;28;20672;-68
2022/11/16 20:40:00;;;;;;;2.80;2.58;;;;;;;;;;10502833;28;20772;-69
2022/11/16 20:45:01;;;;;;;1.98;1.85;;;;;;;;;;10501870;28;20225;-70
2022/11/16 20:50:02;;;;;;;2.38;2.25;;;;;;;;;;10494973;28;20236;-69
2022/11/16 20:55:03;;;;;;;2.47;2.28;;;;;;;;;;10491578;28;20193;-68
2022/11/16 21:00:05;;;;;;;2.60;2.40;;;;;;;;;;10498887;28;20201;-70
2022/11/16 21:05:06;;;;;;;2.95;2.65;;;;;;;;;;10498241;28;20579;-72
2022/11/16 21:10:17;;;;;;;3.13;2.90;;;;;;;;;;10503345;28;20557;-73
2022/11/16 21:15:18;;;;;;;4.15;3.25;;;;;;;;;;10500712;28;20214;-74
2022/11/16 21:20:19;;;;;;;3.78;2.50;;;;;;;;;;10491433;28;20238;-72
2022/11/16 21:25:20;;;;;;;1.95;1.95;;;;;;;;;;10499355;28;20976;-71
2022/11/16 21:30:21;;;;;;;2.60;2.50;;;;;;;;;;10503302;28;20221;-72
2022/11/16 21:35:25;;;;;;;2.15;2.03;;;;;;;;;;10494137;28;20331;-71
2022/11/16 21:40:26;;;;;;;2.08;1.98;;;;;;;;;;10489025;28;20220;-72
2022/11/16 21:45:27;;;;;;;5.00;4.57;;;;;;;;;;10488098;28;20218;-71
2022/11/16 21:50:28;;;;;;;0.90;0.90;;;;;;;;;;10489319;28;20206;-72
2022/11/16 21:55:29;;;;;;;7.18;5.13;;;;;;;;;;10506615;28;20604;-71
2022/11/16 22:00:30;;;;;;;2.13;1.85;;;;;;;;;;10502485;28;20222;-72
2022/11/16 22:10:52;;;;;;;10.25;7.28;;;;;;;;;;10503452;28;20279;-71
2022/11/16 22:15:53;;;;;;;4.65;3.60;;;;;;;;;;10507428;28;20237;-71
2022/11/16 22:20:54;;;;;;;3.92;3.25;;;;;;;;;;10489072;28;20306;-72
2022/11/16 22:25:59;;;;;;;2.10;2.00;;;;;;;;;;10503265;28;20709;-71
2022/11/16 22:31:00;;;;;;;2.85;2.13;;;;;;;;;;10468696;28;20221;-72
2022/11/16 22:36:02;;;;;;;2.30;1.88;;;;;;;;;;10501106;28;20264;-72
2022/11/16 22:41:05;;;;;;;2.05;1.95;;;;;;;;;;10504284;28;20225;-72
2022/11/16 22:46:06;;;;;;;1.88;1.77;;;;;;;;;;10503660;28;20216;-72
2022/11/16 22:51:14;;;;;;;1.95;1.85;;;;;;;;;;10485722;28;20218;-72
2022/11/16 22:56:15;;;;;;;1.90;1.80;;;;;;;;;;10485068;28;20764;-72
2022/11/16 23:01:16;;;;;;;1.98;1.83;;;;;;;;;;10504076;28;20627;-72
2022/11/16 23:06:17;;;;;;;2.33;2.20;;;;;;;;;;10486043;28;20302;-72
2022/11/16 23:16:40;;;;;;;2.13;2.03;;;;;;;;;;10499752;28;20217;-72
2022/11/16 23:32:23;;;;;;;1.60;1.45;;;;;;;;;;10505573;28;20206;-72
2022/11/16 23:37:24;;;;;;;1.42;1.33;;;;;;;;;;10503636;28;20757;-72
2022/11/16 23:47:45;;;;;;;2.42;1.67;;;;;;;;;;10501495;28;20232;-72
2022/11/16 23:52:46;;;;;;;1.25;1.23;;;;;;;;;;10483691;28;20217;-71
2022/11/16 23:57:47;;;;;;;2.75;1.48;;;;;;;;;;10513831;28;20823;-72
